Time;durP1;ratioP1;P1;durP2;ratioP2;P2;SDS_P1;SDS_P2;PMS_P1;PMS_P2;Temp;Humidity;BMP_temperature;BMP_pressure;BME280_temperature;BME280_humidity;BME280_pressure;Samples;Min_cycle;Max_cycle;Signal;HPM_P1;HPM_P2
2023/11/25 00:00:29;;;;;;;4.38;2.03;;;2.50;19.60;;;;;;4994055;28;20428;-74
2023/11/25 00:02:54;;;;;;;5.90;1.43;;;2.60;18.60;;;;;;4994372;28;20213;-74
2023/11/25 00:05:20;;;;;;;3.33;1.80;;;2.60;17.10;;;;;;4994904;28;20179;-74
2023/11/25 00:07:46;;;;;;;3.47;1.80;;;2.60;15.70;;;;;;4993941;28;20231;-74
2023/11/25 00:10:12;;;;;;;2.50;1.20;;;2.60;15.90;;;;;;4994986;28;20289;-74
2023/11/25 00:12:38;;;;;;;2.60;1.37;;;2.60;17.10;;;;;;4992668;28;20751;-74
2023/11/25 00:15:04;;;;;;;2.30;1.13;;;2.40;18.50;;;;;;4994007;28;20577;-73
2023/11/25 00:17:31;;;;;;;3.08;1.00;;;2.40;20.40;;;;;;4993729;28;20644;-73
2023/11/25 00:19:59;;;;;;;4.60;1.25;;;2.30;21.80;;;;;;4992324;28;20275;-73
2023/11/25 00:22:27;;;;;;;2.00;1.00;;;2.30;23.50;;;;;;4993503;28;20199;-74
2023/11/25 00:24:53;;;;;;;3.10;1.40;;;2.30;25.90;;;;;;4993503;28;20177;-73
2023/11/25 00:27:19;;;;;;;3.13;1.60;;;2.20;26.50;;;;;;4992199;28;20572;-73
2023/11/25 00:29:44;;;;;;;4.63;1.90;;;2.20;28.50;;;;;;4991871;28;20200;-73
2023/11/25 00:32:10;;;;;;;4.33;1.90;;;2.10;28.60;;;;;;4992241;28;20685;-73
2023/11/25 00:34:39;;;;;;;2.57;1.73;;;2.00;30.50;;;;;;4993293;28;20203;-73
2023/11/25 00:37:05;;;;;;;2.65;1.27;;;2.00;30.50;;;;;;4991791;28;20416;-77
2023/11/25 00:39:30;;;;;;;4.40;1.73;;;2.00;31.90;;;;;;4991996;28;20277;-74
2023/11/25 00:41:58;;;;;;;5.63;2.40;;;2.00;33.30;;;;;;4993042;28;20444;-73
2023/11/25 00:44:23;;;;;;;3.60;1.35;;;1.90;34.30;;;;;;4991746;28;20182;-73
2023/11/25 00:46:49;;;;;;;3.00;1.43;;;1.90;35.60;;;;;;4993078;28;20546;-73
2023/11/25 00:49:15;;;;;;;2.97;1.50;;;2.00;35.60;;;;;;4992731;28;20250;-73
2023/11/25 00:51:42;;;;;;;5.00;1.75;;;1.90;35.50;;;;;;4991528;28;20248;-73
2023/11/25 00:54:08;;;;;;;3.70;1.38;;;1.90;35.50;;;;;;4991302;28;20211;-74
2023/11/25 00:56:33;;;;;;;1.80;1.10;;;1.80;35.40;;;;;;4992829;28;20227;-74
2023/11/25 00:58:59;;;;;;;3.20;1.13;;;1.90;35.50;;;;;;4992769;28;20173;-74
2023/11/25 01:01:25;;;;;;;4.77;1.40;;;1.90;36.10;;;;;;4992137;28;20555;-74
2023/11/25 01:03:51;;;;;;;3.30;1.40;;;1.90;35.50;;;;;;4991054;28;20413;-74
2023/11/25 01:06:17;;;;;;;3.90;1.55;;;1.90;35.50;;;;;;4992699;28;20204;-74
2023/11/25 01:08:42;;;;;;;9.33;1.63;;;1.90;35.10;;;;;;4991368;28;20181;-73
2023/11/25 01:11:08;;;;;;;2.40;1.10;;;1.90;34.20;;;;;;4992171;28;20291;-73
2023/11/25 01:13:33;;;;;;;6.97;2.20;;;1.90;34.80;;;;;;4991192;28;20177;-74
2023/11/25 01:16:02;;;;;;;6.03;1.40;;;2.00;34.10;;;;;;4990976;28;20651;-74
2023/11/25 01:18:27;;;;;;;2.88;1.35;;;2.00;34.40;;;;;;4992381;28;20552;-74
2023/11/25 01:20:55;;;;;;;3.30;1.83;;;2.00;35.60;;;;;;4991191;28;20182;-74
2023/11/25 01:23:25;;;;;;;4.43;1.52;;;2.10;35.10;;;;;;4990931;28;20669;-73
2023/11/25 01:25:51;;;;;;;3.30;1.30;;;2.10;34.40;;;;;;4990875;28;20558;-73
2023/11/25 01:28:16;;;;;;;4.33;1.20;;;2.10;34.00;;;;;;4991153;28;20192;-74
2023/11/25 01:30:42;;;;;;;5.20;2.13;;;2.10;34.00;;;;;;4995236;28;20468;-73
2023/11/25 01:33:07;;;;;;;3.83;1.20;;;2.10;33.30;;;;;;4996443;28;20220;-74
2023/11/25 01:35:33;;;;;;;2.80;1.40;;;2.10;33.40;;;;;;4994971;28;20178;-74
2023/11/25 01:37:59;;;;;;;3.00;1.50;;;2.10;33.40;;;;;;4994950;28;20188;-74
2023/11/25 01:40:25;;;;;;;4.70;1.43;;;2.00;33.20;;;;;;4994941;28;20182;-74
2023/11/25 01:42:55;;;;;;;4.60;1.70;;;2.00;30.50;;;;;;4994867;28;20447;-73
2023/11/25 01:45:21;;;;;;;2.08;0.90;;;2.00;28.80;;;;;;4996143;28;20546;-73
2023/11/25 01:47:47;;;;;;;2.97;1.50;;;2.00;23.50;;;;;;4996296;28;20185;-74
2023/11/25 01:50:12;;;;;;;1.83;1.10;;;2.00;18.60;;;;;;4996024;28;20200;-73
2023/11/25 01:52:40;;;;;;;2.10;1.00;;;1.90;18.20;;;;;;4995992;28;20908;-73
2023/11/25 01:55:08;;;;;;;1.90;1.10;;;1.80;16.40;;;;;;4995841;28;20169;-73
2023/11/25 01:57:34;;;;;;;2.95;1.17;;;1.70;16.00;;;;;;4995953;28;20172;-74
2023/11/25 02:00:07;;;;;;;5.53;1.33;;;1.70;17.90;;;;;;4995707;28;20196;-73
2023/11/25 02:02:36;;;;;;;1.83;1.15;;;1.70;18.00;;;;;;4995742;28;20956;-73
2023/11/25 02:05:02;;;;;;;5.00;1.63;;;1.70;18.00;;;;;;4994423;28;20550;-73
2023/11/25 02:07:28;;;;;;;3.85;1.20;;;1.70;17.00;;;;;;4994510;28;20286;-74
2023/11/25 02:09:55;;;;;;;2.83;1.60;;;1.70;16.80;;;;;;4995687;28;20279;-74
2023/11/25 02:12:20;;;;;;;5.82;1.52;;;1.60;17.60;;;;;;4994024;28;20454;-74
2023/11/25 02:14:47;;;;;;;2.73;1.20;;;1.50;16.60;;;;;;4994128;28;20263;-73
2023/11/25 02:17:14;;;;;;;2.28;1.40;;;1.50;16.20;;;;;;4994377;28;20173;-73
2023/11/25 02:19:42;;;;;;;5.45;1.30;;;1.40;14.80;;;;;;4994342;28;20723;-73
2023/11/25 02:22:10;;;;;;;3.15;1.15;;;1.40;15.10;;;;;;4995522;28;20200;-73
2023/11/25 02:24:37;;;;;;;4.05;1.50;;;1.40;14.90;;;;;;4995603;28;20281;-72
2023/11/25 02:27:04;;;;;;;3.00;1.00;;;1.30;15.20;;;;;;4997025;28;20173;-72
2023/11/25 02:29:32;;;;;;;2.60;1.13;;;1.30;13.00;;;;;;4997939;28;20173;-72
2023/11/25 02:31:58;;;;;;;3.35;1.42;;;1.30;12.70;;;;;;4998495;28;20200;-72
2023/11/25 02:34:27;;;;;;;3.60;0.80;;;1.30;12.90;;;;;;4997471;28;20267;-72
2023/11/25 02:36:53;;;;;;;2.50;1.15;;;1.30;12.10;;;;;;4996776;28;20176;-72
2023/11/25 02:39:19;;;;;;;5.20;1.83;;;1.40;11.30;;;;;;4997933;28;20184;-73
2023/11/25 02:41:48;;;;;;;4.00;1.10;;;1.40;10.30;;;;;;4996157;28;20205;-73
2023/11/25 02:44:15;;;;;;;2.00;1.05;;;1.50;10.50;;;;;;4996351;28;20173;-73
2023/11/25 02:46:45;;;;;;;6.38;1.55;;;1.60;10.70;;;;;;4997890;28;20169;-73
2023/11/25 02:49:12;;;;;;;2.97;1.83;;;1.60;10.10;;;;;;4995219;28;20281;-73
2023/11/25 02:51:37;;;;;;;2.88;1.10;;;1.60;9.40;;;;;;4994792;28;20303;-72
2023/11/25 02:54:05;;;;;;;3.77;1.23;;;1.60;9.80;;;;;;4994956;28;20616;-72
2023/11/25 02:56:31;;;;;;;2.40;1.15;;;1.50;12.10;;;;;;4996336;28;20177;-72
2023/11/25 02:58:57;;;;;;;2.22;1.23;;;1.50;12.10;;;;;;4996685;28;20180;-72
2023/11/25 03:01:27;;;;;;;2.30;0.90;;;1.50;11.70;;;;;;4995860;28;20540;-73
2023/11/25 03:03:53;;;;;;;2.78;1.25;;;1.50;11.90;;;;;;4995676;28;20169;-73
2023/11/25 03:06:22;;;;;;;2.13;1.20;;;1.50;12.90;;;;;;4995179;28;20273;-73
2023/11/25 03:08:48;;;;;;;2.38;1.35;;;1.50;12.80;;;;;;4994924;28;20649;-72
2023/11/25 03:11:18;;;;;;;3.10;1.27;;;1.40;12.60;;;;;;4995497;28;20205;-72
2023/11/25 03:13:45;;;;;;;2.30;1.40;;;1.30;13.50;;;;;;4993524;28;20183;-73
2023/11/25 03:16:10;;;;;;;4.07;1.10;;;1.30;14.70;;;;;;4994889;28;20181;-72
2023/11/25 03:18:36;;;;;;;6.63;1.70;;;1.30;13.90;;;;;;4994991;28;20184;-72
2023/11/25 03:21:02;;;;;;;5.87;1.53;;;1.30;12.80;;;;;;4994707;28;20212;-72
2023/11/25 03:23:27;;;;;;;3.40;1.70;;;1.30;12.20;;;;;;4993099;28;20293;-72
2023/11/25 03:25:54;;;;;;;2.37;1.43;;;1.20;13.00;;;;;;4994432;28;20903;-73
2023/11/25 03:28:20;;;;;;;6.57;1.42;;;1.20;13.90;;;;;;4994517;28;20180;-73
2023/11/25 03:30:46;;;;;;;2.40;1.13;;;1.20;14.30;;;;;;4994643;28;20230;-72
2023/11/25 03:33:12;;;;;;;3.63;1.23;;;1.20;14.80;;;;;;4994454;28;20188;-73
2023/11/25 03:35:38;;;;;;;4.32;1.45;;;1.30;14.80;;;;;;4993206;28;20176;-73
2023/11/25 03:38:04;;;;;;;2.77;1.37;;;1.30;13.50;;;;;;4994557;28;20711;-72
2023/11/25 03:40:30;;;;;;;2.80;1.50;;;1.30;13.50;;;;;;4994355;28;20186;-73
2023/11/25 03:42:58;;;;;;;4.45;1.40;;;1.40;13.80;;;;;;5209975;22;20610;-69
2023/11/25 03:45:23;;;;;;;3.45;1.98;;;1.40;14.70;;;;;;5054823;28;20557;-69
2023/11/25 03:47:51;;;;;;;4.17;1.30;;;1.50;14.50;;;;;;5053789;28;20213;-70
2023/11/25 03:50:17;;;;;;;3.30;1.52;;;1.60;14.40;;;;;;5055247;28;20207;-72
2023/11/25 03:52:42;;;;;;;8.97;1.70;;;1.70;12.30;;;;;;5054197;28;20271;-70
2023/11/25 03:55:09;;;;;;;3.10;1.43;;;1.70;11.00;;;;;;5052872;28;20183;-70
2023/11/25 03:57:39;;;;;;;2.60;1.77;;;1.80;12.00;;;;;;5055315;28;20229;-72
2023/11/25 04:00:14;;;;;;;6.20;1.80;;;1.80;10.50;;;;;;5053513;28;20560;-71
2023/11/25 04:02:44;;;;;;;3.45;1.30;;;1.80;9.60;;;;;;5054491;28;20239;-71
2023/11/25 04:05:10;;;;;;;4.78;1.50;;;1.80;9.60;;;;;;5052914;28;20183;-72
2023/11/25 04:07:36;;;;;;;4.57;1.33;;;1.90;10.40;;;;;;5034241;28;20183;-69
2023/11/25 04:10:12;;;;;;;4.73;1.60;;;2.00;10.50;;;;;;5032827;28;20624;-70
2023/11/25 04:12:38;;;;;;;3.72;1.73;;;1.90;9.60;;;;;;5034212;28;20191;-70
2023/11/25 04:15:04;;;;;;;3.22;1.58;;;1.90;11.10;;;;;;5034110;28;20165;-71
2023/11/25 04:17:30;;;;;;;3.67;1.30;;;1.90;11.20;;;;;;5037022;28;20181;-72
2023/11/25 04:19:57;;;;;;;7.83;3.00;;;1.90;10.90;;;;;;5055276;28;20230;-71
2023/11/25 04:22:23;;;;;;;4.38;1.40;;;2.00;11.10;;;;;;5054493;28;20194;-71
2023/11/25 04:24:49;;;;;;;4.13;1.33;;;2.00;12.00;;;;;;5055304;28;20254;-71
2023/11/25 04:27:16;;;;;;;13.23;1.73;;;1.90;11.70;;;;;;5055211;28;20209;-71
2023/11/25 04:29:44;;;;;;;5.15;1.80;;;1.80;10.60;;;;;;5051757;28;20250;-71
2023/11/25 04:32:10;;;;;;;6.68;1.85;;;1.80;11.80;;;;;;5053556;28;20200;-71
2023/11/25 04:34:35;;;;;;;3.00;1.90;;;1.80;11.60;;;;;;5054736;28;20544;-71
2023/11/25 04:37:01;;;;;;;4.70;1.70;;;1.80;12.00;;;;;;5054547;28;20216;-71
2023/11/25 04:39:27;;;;;;;2.53;1.70;;;1.90;12.50;;;;;;5052853;28;20171;-70
2023/11/25 04:41:52;;;;;;;3.40;1.50;;;1.90;13.20;;;;;;5034823;28;20212;-71
2023/11/25 04:44:18;;;;;;;2.20;1.40;;;1.90;13.60;;;;;;5045183;28;20249;-71
2023/11/25 04:46:45;;;;;;;8.10;2.30;;;1.90;13.40;;;;;;5052705;28;20262;-71
2023/11/25 04:49:11;;;;;;;2.92;2.20;;;1.90;13.30;;;;;;5054371;28;20174;-71
2023/11/25 04:51:37;;;;;;;3.40;1.60;;;1.90;12.90;;;;;;5052264;28;20212;-71
2023/11/25 04:54:03;;;;;;;3.07;1.37;;;1.90;13.10;;;;;;5052833;28;20434;-71
2023/11/25 04:56:29;;;;;;;5.17;1.70;;;1.90;11.80;;;;;;5054491;28;20210;-72
2023/11/25 04:58:54;;;;;;;2.07;1.23;;;1.90;10.60;;;;;;5056178;28;20432;-73
2023/11/25 05:01:20;;;;;;;5.53;1.87;;;1.90;10.10;;;;;;5055808;28;20178;-73
2023/11/25 05:03:46;;;;;;;3.00;2.17;;;1.90;10.10;;;;;;5054641;28;20176;-72
2023/11/25 05:06:13;;;;;;;4.93;1.70;;;2.00;11.10;;;;;;5034320;28;20262;-73
2023/11/25 05:08:38;;;;;;;6.13;1.83;;;2.00;11.70;;;;;;5051820;28;20705;-73
2023/11/25 05:11:05;;;;;;;4.37;2.10;;;2.00;10.90;;;;;;5054614;28;20204;-73
2023/11/25 05:13:31;;;;;;;2.70;1.60;;;2.00;11.10;;;;;;5054954;28;20195;-73
2023/11/25 05:15:57;;;;;;;3.13;1.77;;;2.10;8.70;;;;;;5055058;28;20699;-72
2023/11/25 05:18:23;;;;;;;3.50;1.77;;;2.10;9.00;;;;;;5034547;28;20181;-73
2023/11/25 05:20:49;;;;;;;6.88;2.53;;;2.10;8.60;;;;;;5033644;28;20611;-73
2023/11/25 05:23:15;;;;;;;8.00;2.27;;;2.10;8.80;;;;;;5034447;28;20195;-74
2023/11/25 05:25:40;;;;;;;5.00;1.90;;;2.00;8.80;;;;;;5036732;28;20176;-73
2023/11/25 05:28:09;;;;;;;5.73;1.80;;;1.90;8.90;;;;;;5035664;28;20199;-74
2023/11/25 05:30:34;;;;;;;3.20;1.70;;;1.90;8.50;;;;;;5057097;28;20202;-73
2023/11/25 05:33:00;;;;;;;3.50;2.13;;;1.90;9.60;;;;;;5058478;28;20642;-72
2023/11/25 05:35:25;;;;;;;6.63;2.13;;;1.90;9.70;;;;;;5057372;28;20172;-72
2023/11/25 05:37:51;;;;;;;2.50;1.60;;;1.90;9.60;;;;;;5056441;28;20183;-72
2023/11/25 05:40:17;;;;;;;2.70;1.43;;;1.90;9.60;;;;;;5057433;28;20255;-72
2023/11/25 05:42:47;;;;;;;10.03;2.63;;;1.80;9.70;;;;;;5033961;28;20222;-72
2023/11/25 05:45:13;;;;;;;4.65;1.80;;;1.80;10.20;;;;;;5035179;28;20231;-73
2023/11/25 05:47:39;;;;;;;6.18;1.65;;;1.80;10.10;;;;;;5034785;28;20215;-72
2023/11/25 05:50:06;;;;;;;3.20;1.10;;;1.80;8.10;;;;;;5031053;28;20239;-73
2023/11/25 05:52:32;;;;;;;4.95;1.67;;;1.80;9.20;;;;;;5034361;28;20474;-73
2023/11/25 05:54:57;;;;;;;2.43;1.50;;;1.90;9.60;;;;;;5051658;28;20206;-74
2023/11/25 05:57:23;;;;;;;3.70;1.20;;;1.90;8.40;;;;;;5052180;28;20183;-73
2023/11/25 05:59:48;;;;;;;6.87;1.70;;;1.80;5.20;;;;;;5054209;28;20175;-73
2023/11/25 06:02:14;;;;;;;3.20;1.87;;;1.80;2.90;;;;;;5052179;28;20213;-73
2023/11/25 06:04:39;;;;;;;2.83;1.60;;;1.80;4.30;;;;;;5049291;28;20196;-73
2023/11/25 06:07:05;;;;;;;3.10;1.57;;;1.80;5.20;;;;;;5032220;28;20184;-73
2023/11/25 06:09:31;;;;;;;3.88;1.77;;;1.70;6.20;;;;;;5030741;28;20182;-72
2023/11/25 06:11:57;;;;;;;6.70;2.17;;;1.50;8.20;;;;;;5032030;28;20735;-73
2023/11/25 06:14:24;;;;;;;4.17;2.10;;;1.40;9.50;;;;;;5030685;28;20296;-72
2023/11/25 06:16:52;;;;;;;3.92;2.08;;;1.30;9.50;;;;;;5036948;28;20409;-73
2023/11/25 06:19:20;;;;;;;4.38;1.45;;;1.20;10.60;;;;;;5055236;28;20176;-72
2023/11/25 06:21:47;;;;;;;8.50;1.63;;;1.30;11.40;;;;;;5055189;28;20198;-72
2023/11/25 06:24:16;;;;;;;4.15;1.90;;;1.00;12.40;;;;;;5053876;28;20182;-71
2023/11/25 06:26:41;;;;;;;4.85;2.03;;;1.00;12.20;;;;;;5062894;28;20183;-72
2023/11/25 06:29:07;;;;;;;6.03;2.03;;;0.90;13.60;;;;;;5059114;28;20213;-72
2023/11/25 06:31:35;;;;;;;7.03;1.80;;;0.80;14.30;;;;;;5042196;28;20299;-72
2023/11/25 06:34:01;;;;;;;4.35;2.55;;;0.80;14.40;;;;;;5042316;28;20654;-71
2023/11/25 06:36:27;;;;;;;2.37;1.13;;;0.80;15.00;;;;;;5043146;28;20178;-72
2023/11/25 06:38:52;;;;;;;11.50;2.43;;;0.80;14.30;;;;;;5043329;28;20185;-70
2023/11/25 06:41:21;;;;;;;3.67;1.67;;;0.80;12.40;;;;;;5046217;28;20188;-73
2023/11/25 06:43:47;;;;;;;4.75;2.33;;;0.80;13.30;;;;;;5045636;28;20241;-72
2023/11/25 06:46:14;;;;;;;4.23;1.83;;;0.80;14.50;;;;;;5045019;28;20267;-71
2023/11/25 06:48:39;;;;;;;4.65;1.75;;;0.80;13.90;;;;;;5042609;28;20187;-72
2023/11/25 06:51:05;;;;;;;4.20;1.70;;;0.80;15.20;;;;;;5043638;28;20328;-71
2023/11/25 06:53:31;;;;;;;2.97;1.30;;;0.70;15.80;;;;;;5063841;28;20225;-69
2023/11/25 06:55:58;;;;;;;8.37;2.07;;;0.80;15.20;;;;;;5063022;28;20480;-72
2023/11/25 06:58:25;;;;;;;5.28;1.92;;;0.80;15.80;;;;;;5063378;28;20209;-70
2023/11/25 07:00:51;;;;;;;2.55;1.42;;;0.80;15.70;;;;;;5064346;28;20212;-71
2023/11/25 07:03:17;;;;;;;4.85;1.95;;;0.90;15.90;;;;;;5057681;28;20216;-70
2023/11/25 07:05:42;;;;;;;3.53;1.90;;;0.90;15.40;;;;;;5042657;28;20184;-71
2023/11/25 07:08:09;;;;;;;5.60;2.10;;;1.00;15.40;;;;;;5041535;28;20183;-73
2023/11/25 07:10:34;;;;;;;5.55;2.10;;;1.00;13.40;;;;;;5043074;28;20689;-71
2023/11/25 07:13:04;;;;;;;5.43;2.03;;;1.10;12.50;;;;;;5043728;28;20212;-70
2023/11/25 07:15:30;;;;;;;2.50;1.42;;;1.20;12.10;;;;;;5064042;28;20179;-70
2023/11/25 07:17:57;;;;;;;15.48;2.55;;;1.20;10.80;;;;;;5063162;28;20176;-71
2023/11/25 07:20:22;;;;;;;5.95;1.92;;;1.30;10.00;;;;;;5063650;28;20668;-71
2023/11/25 07:22:48;;;;;;;5.13;1.70;;;1.40;10.50;;;;;;5058868;28;20203;-70
2023/11/25 07:25:14;;;;;;;3.63;2.20;;;1.60;10.40;;;;;;5039894;28;20206;-71
2023/11/25 07:27:46;;;;;;;3.95;1.92;;;1.60;10.60;;;;;;5037832;28;20246;-70
2023/11/25 07:30:14;;;;;;;9.00;2.45;;;1.60;10.20;;;;;;5038359;28;20195;-72
2023/11/25 07:32:40;;;;;;;3.85;2.10;;;1.60;9.20;;;;;;5037540;28;20230;-70
2023/11/25 07:35:07;;;;;;;5.60;2.00;;;1.60;9.30;;;;;;5038909;28;20173;-69
2023/11/25 07:37:36;;;;;;;4.20;1.90;;;1.60;8.70;;;;;;5057340;28;20170;-70
2023/11/25 07:40:09;;;;;;;2.00;1.17;;;1.60;9.40;;;;;;5058953;28;20254;-70
2023/11/25 07:42:37;;;;;;;4.75;1.95;;;1.80;9.10;;;;;;5057146;28;20222;-70
2023/11/25 07:45:06;;;;;;;7.38;2.40;;;1.80;8.40;;;;;;5057404;28;20177;-71
2023/11/25 07:47:32;;;;;;;3.28;1.95;;;1.90;9.30;;;;;;5057451;28;20181;-70
2023/11/25 07:49:58;;;;;;;4.53;2.37;;;2.00;7.70;;;;;;5041389;28;20577;-70
2023/11/25 07:52:24;;;;;;;8.10;1.93;;;2.00;6.50;;;;;;5039839;28;20699;-70
2023/11/25 07:54:49;;;;;;;6.03;2.70;;;2.20;6.50;;;;;;5041916;28;20434;-70
2023/11/25 07:57:15;;;;;;;2.87;1.70;;;2.30;5.80;;;;;;5043293;28;20181;-71
2023/11/25 07:59:41;;;;;;;5.97;3.07;;;2.40;7.00;;;;;;5044252;28;20170;-72
2023/11/25 08:02:06;;;;;;;5.03;2.20;;;2.40;6.10;;;;;;5062308;28;20652;-71
2023/11/25 08:04:32;;;;;;;20.03;3.00;;;2.40;6.20;;;;;;5057888;28;20541;-70
2023/11/25 08:06:57;;;;;;;4.67;2.30;;;2.40;5.90;;;;;;5058970;28;20182;-71
2023/11/25 08:09:26;;;;;;;2.87;1.53;;;2.50;6.20;;;;;;5059680;28;20244;-71
2023/11/25 08:11:52;;;;;;;5.78;2.40;;;2.50;5.60;;;;;;5053907;28;20268;-72
2023/11/25 08:14:17;;;;;;;3.40;2.10;;;2.50;4.80;;;;;;5038961;28;20183;-71
2023/11/25 08:16:43;;;;;;;5.73;1.97;;;2.60;5.70;;;;;;5041644;28;20711;-71
2023/11/25 08:19:13;;;;;;;10.40;4.37;;;2.60;4.60;;;;;;5041894;28;20539;-72
2023/11/25 08:21:38;;;;;;;6.43;2.53;;;2.60;4.60;;;;;;5039463;28;20451;-71
2023/11/25 08:24:05;;;;;;;3.93;1.87;;;2.60;3.50;;;;;;5043264;28;20296;-71
2023/11/25 08:26:30;;;;;;;4.78;1.95;;;2.60;3.20;;;;;;5059125;28;20190;-71
2023/11/25 08:28:56;;;;;;;6.00;2.03;;;2.50;3.40;;;;;;5059431;28;20242;-72
2023/11/25 08:31:22;;;;;;;4.10;2.50;;;2.60;4.40;;;;;;5049723;28;20926;-72
2023/11/25 08:33:47;;;;;;;5.67;2.40;;;2.70;3.50;;;;;;5037296;28;20187;-71
2023/11/25 08:36:18;;;;;;;3.03;2.00;;;2.80;2.80;;;;;;5037506;28;20955;-73
2023/11/25 08:38:46;;;;;;;4.65;1.90;;;3.00;3.00;;;;;;5036671;28;20555;-80
2023/11/25 08:41:16;;;;;;;3.78;1.60;;;3.10;3.40;;;;;;5032913;28;20193;-80
2023/11/25 08:43:47;;;;;;;4.25;2.50;;;3.20;1.60;;;;;;5037498;28;20196;-73
2023/11/25 08:46:19;;;;;;;9.88;2.00;;;3.20;1.00;;;;;;5039010;28;20245;-74
2023/11/25 08:48:45;;;;;;;2.38;1.40;;;3.20;1.00;;;;;;5033514;28;20186;-73
2023/11/25 08:51:14;;;;;;;7.80;3.45;;;3.30;1.00;;;;;;5042198;28;20300;-74
2023/11/25 08:53:44;;;;;;;5.68;3.15;;;3.40;1.00;;;;;;5040062;28;20178;-74
2023/11/25 08:56:10;;;;;;;4.78;2.42;;;3.30;1.00;;;;;;5046404;28;20209;-74
2023/11/25 08:58:36;;;;;;;5.27;2.40;;;3.40;1.00;;;;;;5057885;28;20174;-74
2023/11/25 09:01:02;;;;;;;7.77;2.53;;;3.50;1.00;;;;;;5052189;28;20450;-73
2023/11/25 09:03:27;;;;;;;3.38;1.58;;;3.60;1.00;;;;;;5048420;28;20205;-73
2023/11/25 09:05:53;;;;;;;5.40;1.57;;;3.60;1.00;;;;;;5041242;28;20184;-72
2023/11/25 09:08:20;;;;;;;6.57;2.37;;;3.50;1.00;;;;;;5052782;28;20948;-73
2023/11/25 09:10:45;;;;;;;6.30;2.42;;;3.40;1.00;;;;;;5041804;28;20201;-74
2023/11/25 09:13:11;;;;;;;5.53;2.30;;;3.40;1.00;;;;;;5032501;28;20197;-73
2023/11/25 09:15:37;;;;;;;5.57;2.57;;;3.10;1.00;;;;;;5053859;28;20184;-73
2023/11/25 09:18:06;;;;;;;3.03;2.20;;;3.00;1.00;;;;;;5073855;28;20422;-73
2023/11/25 09:20:32;;;;;;;3.17;2.22;;;2.90;1.50;;;;;;5063390;28;20438;-73
2023/11/25 09:22:57;;;;;;;8.33;2.10;;;2.80;2.50;;;;;;5055546;28;20193;-73
2023/11/25 09:25:24;;;;;;;2.73;1.70;;;2.80;3.20;;;;;;5054147;28;20668;-72
2023/11/25 09:27:51;;;;;;;3.33;1.50;;;2.80;3.10;;;;;;5056513;28;20192;-72
2023/11/25 09:30:18;;;;;;;3.30;1.77;;;3.00;2.20;;;;;;5054525;28;20261;-74
2023/11/25 09:32:46;;;;;;;3.42;2.28;;;3.20;3.10;;;;;;5055258;28;20203;-74
2023/11/25 09:35:13;;;;;;;5.20;2.88;;;3.10;1.50;;;;;;5056804;28;20672;-73
2023/11/25 09:37:40;;;;;;;2.70;1.30;;;3.30;2.10;;;;;;5056034;28;20185;-74
2023/11/25 09:40:14;;;;;;;3.70;1.70;;;3.60;1.90;;;;;;5055844;28;20248;-74
2023/11/25 09:42:40;;;;;;;7.23;2.30;;;3.70;1.00;;;;;;5056176;22;20430;-72
2023/11/25 09:45:06;;;;;;;3.17;1.87;;;4.00;1.00;;;;;;4991751;28;20637;-71
2023/11/25 09:47:32;;;;;;;8.83;2.13;;;4.20;1.00;;;;;;4976676;28;20448;-73
2023/11/25 09:49:57;;;;;;;8.67;2.23;;;4.40;1.00;;;;;;4987038;28;20515;-71
2023/11/25 09:52:25;;;;;;;7.50;2.10;;;4.30;1.00;;;;;;4981530;28;20461;-71
2023/11/25 09:54:56;;;;;;;7.43;3.13;;;4.30;1.00;;;;;;4976242;28;20185;-72
2023/11/25 09:57:25;;;;;;;3.60;2.45;;;4.20;1.00;;;;;;5003732;28;20418;-71
2023/11/25 09:59:50;;;;;;;4.53;2.43;;;4.00;1.00;;;;;;5015499;28;20165;-71
2023/11/25 10:02:16;;;;;;;7.67;3.13;;;4.00;1.00;;;;;;4999144;28;20989;-73
2023/11/25 10:04:45;;;;;;;4.57;2.87;;;4.00;1.00;;;;;;4994780;28;20179;-72
2023/11/25 10:07:11;;;;;;;4.13;2.60;;;4.00;1.00;;;;;;4995774;28;20426;-72
2023/11/25 10:09:38;;;;;;;6.67;2.93;;;4.30;1.00;;;;;;4995732;28;20416;-71
2023/11/25 10:12:06;;;;;;;5.70;2.63;;;4.50;1.00;;;;;;4996095;28;20270;-72
2023/11/25 10:14:32;;;;;;;5.53;3.10;;;4.30;1.00;;;;;;4995191;28;20419;-71
2023/11/25 10:17:14;;;;;;;4.53;2.53;;;4.60;1.00;;;;;;4995424;28;20601;-71
2023/11/25 10:19:40;;;;;;;12.43;5.47;;;4.60;1.00;;;;;;4989612;28;20180;-69
2023/11/25 10:22:05;;;;;;;12.60;9.47;;;4.60;1.00;;;;;;5001097;28;20452;-72
2023/11/25 10:24:31;;;;;;;16.03;10.00;;;4.60;1.00;;;;;;4996091;28;20189;-70
2023/11/25 10:26:56;;;;;;;6.40;3.90;;;4.60;1.00;;;;;;4991155;28;20184;-69
2023/11/25 10:29:24;;;;;;;7.13;2.87;;;4.60;1.00;;;;;;4990487;28;20271;-69
2023/11/25 10:31:57;;;;;;;4.50;2.00;;;4.60;1.00;;;;;;4976775;28;20529;-70
2023/11/25 10:34:24;;;;;;;4.70;3.20;;;4.70;1.00;;;;;;4972398;28;20432;-70
2023/11/25 10:36:50;;;;;;;4.97;2.27;;;4.90;1.00;;;;;;4986553;28;20443;-71
2023/11/25 10:39:17;;;;;;;4.50;2.50;;;5.10;1.00;;;;;;4992466;28;20920;-71
2023/11/25 10:41:50;;;;;;;3.10;1.80;;;5.40;1.00;;;;;;4999110;28;20426;-69
2023/11/25 10:44:17;;;;;;;3.40;2.10;;;5.30;1.00;;;;;;5013079;28;20429;-70
2023/11/25 10:46:44;;;;;;;5.53;2.20;;;5.20;1.00;;;;;;5009596;28;20418;-70
2023/11/25 10:49:09;;;;;;;6.10;2.47;;;5.10;1.00;;;;;;4995117;28;20474;-70
2023/11/25 10:51:38;;;;;;;4.87;2.20;;;5.30;1.00;;;;;;4994622;28;20969;-70
2023/11/25 10:54:08;;;;;;;3.97;2.87;;;5.40;1.00;;;;;;4994778;28;20657;-70
2023/11/25 10:56:35;;;;;;;8.53;2.53;;;5.30;1.00;;;;;;4994793;28;20807;-70
2023/11/25 10:59:01;;;;;;;7.53;2.70;;;5.10;1.00;;;;;;4993197;28;20423;-70
2023/11/25 11:01:31;;;;;;;9.27;2.83;;;5.10;1.00;;;;;;4993687;28;20427;-69
2023/11/25 11:04:07;;;;;;;5.80;2.77;;;5.00;1.00;;;;;;4993464;28;20435;-70
2023/11/25 11:06:53;;;;;;;13.23;4.47;;;5.00;1.00;;;;;;4993760;28;20439;-71
2023/11/25 11:09:20;;;;;;;8.53;4.20;;;5.20;1.00;;;;;;4998312;28;20522;-70
2023/11/25 11:11:55;;;;;;;7.37;2.77;;;5.30;1.00;;;;;;4990963;28;20474;-70
2023/11/25 11:14:23;;;;;;;7.77;2.67;;;5.50;1.00;;;;;;4989710;28;20443;-70
2023/11/25 11:16:53;;;;;;;7.47;3.30;;;5.80;1.00;;;;;;4994156;28;20518;-75
2023/11/25 11:19:30;;;;;;;7.20;3.23;;;5.60;1.00;;;;;;4992485;28;20451;-71
2023/11/25 11:22:05;;;;;;;7.27;2.53;;;5.40;1.00;;;;;;4974859;28;20455;-70
2023/11/25 11:24:54;;;;;;;3.50;2.10;;;5.40;1.00;;;;;;4974617;28;20431;-69
2023/11/25 11:27:33;;;;;;;7.90;3.37;;;5.40;1.00;;;;;;4992662;28;20466;-70
2023/11/25 11:30:10;;;;;;;5.00;2.17;;;5.60;1.00;;;;;;4994132;28;20459;-69
2023/11/25 11:32:37;;;;;;;6.93;2.50;;;5.80;1.00;;;;;;4994038;28;20431;-70
2023/11/25 11:35:03;;;;;;;6.97;2.70;;;5.80;1.00;;;;;;4993662;28;20487;-70
2023/11/25 11:37:45;;;;;;;6.40;2.90;;;5.60;1.00;;;;;;4993780;28;20530;-70
2023/11/25 11:40:12;;;;;;;6.27;2.63;;;5.50;1.00;;;;;;4993772;28;20416;-69
2023/11/25 11:42:39;;;;;;;7.43;2.60;;;5.40;1.00;;;;;;4993635;28;20455;-70
2023/11/25 11:47:58;;;;;;;6.70;3.33;;;5.40;1.00;;;;;;4993716;28;20423;-70
2023/11/25 11:50:29;;;;;;;6.53;2.93;;;5.30;1.00;;;;;;4993863;28;20471;-72
2023/11/25 11:53:00;;;;;;;8.70;3.80;;;5.20;1.00;;;;;;4994222;28;20514;-69
2023/11/25 11:55:52;;;;;;;5.27;2.53;;;5.30;1.00;;;;;;4993998;28;20725;-69
2023/11/25 11:58:23;;;;;;;4.30;2.20;;;5.30;1.00;;;;;;4994236;28;20412;-71
2023/11/25 12:00:59;;;;;;;6.00;2.97;;;5.40;1.00;;;;;;4993671;28;20423;-71
2023/11/25 12:03:26;;;;;;;11.53;3.00;;;5.70;1.00;;;;;;4974290;28;20885;-71
2023/11/25 12:05:52;;;;;;;4.60;2.40;;;5.70;1.00;;;;;;4973950;28;20908;-71
2023/11/25 12:08:18;;;;;;;7.70;3.27;;;5.70;1.00;;;;;;4974160;28;20416;-70
2023/11/25 12:10:43;;;;;;;10.97;2.50;;;5.70;1.00;;;;;;4974192;28;20487;-70
2023/11/25 12:13:11;;;;;;;3.53;2.67;;;5.60;1.00;;;;;;4991529;28;20480;-70
2023/11/25 12:15:37;;;;;;;3.90;2.50;;;5.40;1.00;;;;;;4993310;28;20408;-70
2023/11/25 12:18:05;;;;;;;6.00;2.60;;;5.30;1.00;;;;;;4993356;28;20470;-71
2023/11/25 12:20:31;;;;;;;7.33;2.90;;;5.20;1.00;;;;;;4992247;28;20186;-70
2023/11/25 12:23:03;;;;;;;7.30;2.80;;;5.00;1.00;;;;;;4993672;28;21009;-70
2023/11/25 12:25:32;;;;;;;5.63;2.47;;;5.00;1.00;;;;;;4992916;28;20426;-70
2023/11/25 12:28:08;;;;;;;3.77;1.80;;;4.90;1.00;;;;;;4993330;28;20438;-71
2023/11/25 12:30:39;;;;;;;4.90;1.90;;;4.80;1.00;;;;;;4993329;28;20525;-71
2023/11/25 12:33:06;;;;;;;5.67;2.07;;;4.80;1.00;;;;;;4993128;28;20547;-71
2023/11/25 12:35:36;;;;;;;3.40;2.03;;;4.80;1.00;;;;;;4991145;28;20424;-71
2023/11/25 12:38:05;;;;;;;5.00;1.43;;;4.70;1.00;;;;;;4993038;28;20449;-72
2023/11/25 12:40:31;;;;;;;4.80;3.03;;;4.70;1.00;;;;;;4992954;28;20936;-71
2023/11/25 12:42:57;;;;;;;3.63;1.97;;;4.80;1.00;;;;;;4992605;28;20448;-70
2023/11/25 12:45:42;;;;;;;6.53;2.90;;;4.80;1.00;;;;;;4992439;28;20416;-70
2023/11/25 12:48:11;;;;;;;8.27;3.87;;;4.90;1.00;;;;;;4992586;28;20470;-71
2023/11/25 12:51:01;;;;;;;5.70;2.63;;;5.00;1.00;;;;;;4992633;28;20475;-71
2023/11/25 12:53:28;;;;;;;5.93;2.47;;;4.80;1.00;;;;;;4993023;28;20491;-71
2023/11/25 12:55:53;;;;;;;3.90;1.90;;;4.80;1.00;;;;;;4992527;28;20423;-71
2023/11/25 12:58:20;;;;;;;2.93;2.10;;;4.70;1.00;;;;;;4992963;28;20855;-70
2023/11/25 13:00:55;;;;;;;4.40;2.00;;;4.60;1.00;;;;;;4992662;28;20280;-71
2023/11/25 13:03:32;;;;;;;8.37;2.60;;;4.50;1.00;;;;;;4992661;28;20517;-71
2023/11/25 13:05:59;;;;;;;8.67;2.63;;;4.30;1.00;;;;;;4992906;28;20485;-70